createdAt,value
2023-02-09T00:01:51.282Z,97403.78
2023-02-09T00:04:22.638Z,97418.19
2023-02-09T00:06:53.953Z,97425.84
2023-02-09T00:09:24.958Z,97436.44
2023-02-09T00:12:14.889Z,97432.69
2023-02-09T00:14:41.567Z,97442.53
2023-02-09T00:17:10.649Z,97433.41
2023-02-09T00:19:42.254Z,97416.47
2023-02-09T00:22:08.991Z,97467.41
2023-02-09T00:24:41.866Z,97387.69
2023-02-09T00:27:13.567Z,97452.41
2023-02-09T00:29:49.526Z,97431.44
2023-02-09T00:32:24.884Z,97434.69
2023-02-09T00:34:58.007Z,97405.84
2023-02-09T00:37:28.712Z,97404.81
2023-02-09T00:39:55.641Z,97392.53
2023-02-09T00:42:24.464Z,97414.72
2023-02-09T00:44:52.157Z,97416.59
2023-02-09T00:47:19.008Z,97394.59
2023-02-09T00:49:45.889Z,97420.34
2023-02-09T00:52:16.978Z,97386.72
2023-02-09T00:54:47.372Z,97407.28
2023-02-09T00:57:16.596Z,97436.88
2023-02-09T00:59:45.691Z,97407.03
2023-02-09T01:02:14.869Z,97406.78
2023-02-09T01:04:41.881Z,97432.41
2023-02-09T01:07:08.656Z,97387.84
2023-02-09T01:09:36.618Z,97425.50
2023-02-09T01:12:06.871Z,97423.78
2023-02-09T01:14:40.547Z,97400.56
2023-02-09T01:17:13.326Z,97436.47
2023-02-09T01:19:41.694Z,97413.25
2023-02-09T01:22:13.133Z,97395.03
2023-02-09T01:24:40.354Z,97398.81
2023-02-09T01:27:09.440Z,97429.19
2023-02-09T01:29:40.931Z,97420.88
2023-02-09T01:32:09.906Z,97426.38
2023-02-09T01:34:36.646Z,97426.44
2023-02-09T01:37:04.047Z,97442.13
2023-02-09T01:39:35.507Z,97398.09
2023-02-09T01:42:05.897Z,97409.44
2023-02-09T01:44:34.988Z,97421.84
2023-02-09T01:47:04.804Z,97390.53
2023-02-09T01:49:31.713Z,97396.28
2023-02-09T01:52:03.268Z,97402.63
2023-02-09T01:54:46.254Z,97410.25
2023-02-09T01:57:19.098Z,97411.56
2023-02-09T01:59:51.375Z,97349.78
2023-02-09T02:02:23.745Z,97382.38
2023-02-09T02:04:51.826Z,97344.75
2023-02-09T02:07:22.467Z,97381.22
2023-02-09T02:09:49.887Z,97383.78
2023-02-09T02:12:16.602Z,97363.22
2023-02-09T02:14:45.817Z,97376.63
2023-02-09T02:17:39.337Z,97388.28
2023-02-09T02:20:08.953Z,97398.22
2023-02-09T02:22:54.769Z,97405.81
2023-02-09T02:25:40.201Z,97408.09
2023-02-09T02:28:27.986Z,97409.34
2023-02-09T02:31:28.364Z,97385.13
2023-02-09T02:34:29.538Z,97399.00
2023-02-09T02:37:11.538Z,97404.03
2023-02-09T02:43:58.134Z,97391.38
2023-02-09T02:46:33.594Z,97399.00
2023-02-09T02:49:14.238Z,97386.09
2023-02-09T02:51:51.833Z,97390.09
2023-02-09T02:54:22.090Z,97349.16
2023-02-09T02:57:15.087Z,97378.97
2023-02-09T02:59:51.727Z,97379.50
2023-02-09T03:02:29.229Z,97376.97
2023-02-09T03:05:00.325Z,97355.25
2023-02-09T03:07:32.877Z,97393.72
2023-02-09T03:10:00.588Z,97343.16
2023-02-09T03:12:52.401Z,97380.06
2023-02-09T03:15:32.444Z,97379.31
2023-02-09T03:18:11.518Z,97376.28
2023-02-09T03:21:01.542Z,97372.47
2023-02-09T03:23:56.885Z,97379.28
2023-02-09T03:26:32.920Z,97374.75
2023-02-09T03:29:02.388Z,97382.59
2023-02-09T03:31:32.583Z,97391.94
2023-02-09T03:34:00.716Z,97389.44
2023-02-09T03:36:33.882Z,97372.50
2023-02-09T03:39:01.942Z,97351.25
2023-02-09T03:41:31.858Z,97358.84
2023-02-09T03:44:17.286Z,97386.16
2023-02-09T03:46:44.121Z,97392.72
2023-02-09T03:49:15.645Z,97396.53
2023-02-09T03:51:44.757Z,97377.28
2023-02-09T03:54:11.747Z,97387.16
2023-02-09T03:56:40.858Z,97393.47
2023-02-09T03:59:07.650Z,97384.09
2023-02-09T04:01:36.684Z,97363.59
2023-02-09T04:04:06.361Z,97375.50
2023-02-09T04:06:34.010Z,97385.63
2023-02-09T04:09:04.260Z,97376.53
2023-02-09T04:11:31.399Z,97379.31
2023-02-09T04:13:58.123Z,97401.06
2023-02-09T04:16:25.172Z,97398.78
2023-02-09T04:18:52.449Z,97346.19
2023-02-09T04:21:19.271Z,97376.53
2023-02-09T04:23:46.143Z,97392.47
2023-02-09T04:26:13.157Z,97378.31
2023-02-09T04:28:39.871Z,97388.41
2023-02-09T04:31:09.391Z,97397.28
2023-02-09T04:33:36.400Z,97370.22
2023-02-09T04:36:06.071Z,97359.84
2023-02-09T04:38:35.865Z,97372.25
2023-02-09T04:41:03.829Z,97377.28
2023-02-09T04:43:33.747Z,97379.31
2023-02-09T04:46:00.709Z,97380.34
2023-02-09T04:48:29.035Z,97385.38
2023-02-09T04:50:59.038Z,97383.13
2023-02-09T04:53:30.943Z,97410.69
2023-02-09T04:55:57.755Z,97382.09
2023-02-09T04:58:45.426Z,97351.00
2023-02-09T05:01:19.983Z,97393.47
2023-02-09T05:03:46.848Z,97364.38
2023-02-09T05:06:15.834Z,97410.94
2023-02-09T05:08:45.809Z,97406.38
2023-02-09T05:11:15.881Z,97405.88
2023-02-09T05:13:42.717Z,97404.84
2023-02-09T05:16:17.473Z,97386.91
2023-02-09T05:18:46.590Z,97359.38
2023-02-09T05:21:16.085Z,97412.97
2023-02-09T05:23:44.984Z,97414.72
2023-02-09T05:26:16.186Z,97381.34
2023-02-09T05:28:44.898Z,97395.00
2023-02-09T05:31:11.701Z,97400.81
2023-02-09T05:33:41.085Z,97415.75
2023-02-09T05:36:12.778Z,97406.91
2023-02-09T05:38:41.708Z,97414.25
2023-02-09T05:41:11.124Z,97405.88
2023-02-09T05:43:40.836Z,97420.06
2023-02-09T05:46:08.558Z,97415.25
2023-02-09T05:48:35.307Z,97408.41
2023-02-09T05:51:04.282Z,97412.97
2023-02-09T05:53:30.995Z,97396.28
2023-02-09T05:56:00.226Z,97416.25
2023-02-09T05:58:26.852Z,97427.91
2023-02-09T06:00:53.550Z,97370.22
2023-02-09T06:03:22.685Z,97403.34
2023-02-09T06:05:49.348Z,97384.13
2023-02-09T06:08:22.877Z,97395.28
2023-02-09T06:10:49.624Z,97415.50
2023-02-09T06:13:21.209Z,97389.69
2023-02-09T06:15:47.907Z,97426.13
2023-02-09T06:18:14.729Z,97415.25
2023-02-09T06:20:41.454Z,97423.06
2023-02-09T06:23:13.088Z,97405.63
2023-02-09T06:25:41.141Z,97427.91
2023-02-09T06:28:10.150Z,97418.53
2023-02-09T06:30:36.921Z,97415.25
2023-02-09T06:33:05.976Z,97453.97
2023-02-09T06:35:37.560Z,97426.38
2023-02-09T06:38:06.757Z,97466.63
2023-02-09T06:40:38.279Z,97447.63
2023-02-09T06:43:09.512Z,97414.97
2023-02-09T06:45:39.331Z,97461.31
2023-02-09T06:48:07.275Z,97458.25
2023-02-09T06:50:38.532Z,97451.94
2023-02-09T06:53:06.119Z,97452.97
2023-02-09T06:55:36.172Z,97429.41
2023-02-09T06:58:03.305Z,97460.53
2023-02-09T07:00:32.581Z,97474.47
2023-02-09T07:02:59.974Z,97446.59
2023-02-09T07:05:28.954Z,97457.00
2023-02-09T07:07:57.941Z,97455.22
2023-02-09T07:10:24.788Z,97477.25
2023-02-09T07:12:56.642Z,97481.53
2023-02-09T07:15:23.324Z,97471.41
2023-02-09T07:17:50.052Z,97445.59
2023-02-09T07:20:16.780Z,97473.19
2023-02-09T07:22:45.707Z,97451.94
2023-02-09T07:25:15.030Z,97462.78
2023-02-09T07:27:47.208Z,97479.28
2023-02-09T07:30:14.455Z,97474.97
2023-02-09T07:32:43.615Z,97486.13
2023-02-09T07:35:17.684Z,97479.00
2023-02-09T07:37:49.181Z,97472.69
2023-02-09T07:40:16.102Z,97468.88
2023-02-09T07:42:45.232Z,97465.84
2023-02-09T07:45:14.032Z,97484.06
2023-02-09T07:47:40.712Z,97483.53
2023-02-09T07:50:07.764Z,97474.16
2023-02-09T07:52:34.465Z,97490.59
2023-02-09T07:55:03.449Z,97469.56
2023-02-09T07:57:33.073Z,97472.59
2023-02-09T08:00:02.078Z,97483.19
2023-02-09T08:02:36.600Z,97490.78
2023-02-09T08:05:10.137Z,97480.59
2023-02-09T08:07:37.795Z,97490.97
2023-02-09T08:10:12.046Z,97498.25
2023-02-09T08:12:59.835Z,97497.97
2023-02-09T08:15:49.458Z,97482.94
2023-02-09T08:18:22.160Z,97472.28
2023-02-09T08:20:52.640Z,97478.81
2023-02-09T08:23:26.385Z,97474.69
2023-02-09T08:26:02.791Z,97475.66
2023-02-09T08:28:43.307Z,97469.75
2023-02-09T08:31:11.997Z,97476.75
2023-02-09T08:33:41.308Z,97469.94
2023-02-09T08:36:13.654Z,97474.75
2023-02-09T08:38:40.683Z,97475.72
2023-02-09T08:41:46.446Z,97478.88
2023-02-09T08:44:15.736Z,97475.97
2023-02-09T08:46:48.909Z,97478.41
2023-02-09T08:49:18.149Z,97477.78
2023-02-09T08:51:49.797Z,97481.00
2023-02-09T08:54:18.813Z,97471.69
2023-02-09T08:56:50.564Z,97477.16
2023-02-09T08:59:24.618Z,97477.06
2023-02-09T09:01:55.821Z,97481.00
2023-02-09T09:04:25.419Z,97476.06
2023-02-09T09:06:52.407Z,97464.50
2023-02-09T09:09:23.852Z,97470.94
2023-02-09T09:11:50.526Z,97468.28
2023-02-09T09:14:27.241Z,97471.69
2023-02-09T09:16:59.660Z,97472.06
2023-02-09T09:19:29.316Z,97471.97
2023-02-09T09:22:03.515Z,97470.81
2023-02-09T09:24:40.595Z,97474.97
2023-02-09T09:27:10.604Z,97481.38
2023-02-09T09:29:40.689Z,97482.25
2023-02-09T09:32:10.613Z,97480.25
2023-02-09T09:34:42.532Z,97472.50
2023-02-09T09:37:11.347Z,97474.88
2023-02-09T09:39:43.807Z,97478.56
2023-02-09T09:42:32.248Z,97477.91
2023-02-09T09:44:59.165Z,97486.47
2023-02-09T09:47:38.594Z,97476.31
2023-02-09T09:50:15.729Z,97485.59
2023-02-09T09:52:47.607Z,97482.50
2023-02-09T09:55:23.529Z,97493.72
2023-02-09T09:58:00.630Z,97490.81
2023-02-09T10:00:52.620Z,97500.53
2023-02-09T10:03:21.528Z,97498.34
2023-02-09T10:05:56.449Z,97501.13
2023-02-09T10:08:42.934Z,97493.91
2023-02-09T10:11:15.134Z,97498.53
2023-02-09T10:13:54.966Z,97507.25
2023-02-09T10:16:29.167Z,97496.66
2023-02-09T10:19:01.320Z,97500.31
2023-02-09T10:21:30.404Z,97500.19
2023-02-09T10:24:04.717Z,97493.34
2023-02-09T10:26:38.747Z,97488.88
2023-02-09T10:29:12.963Z,97479.44
2023-02-09T10:31:53.634Z,97478.75
2023-02-09T10:34:28.442Z,97470.72
2023-02-09T10:37:19.410Z,97474.16
2023-02-09T10:39:56.255Z,97464.22
2023-02-09T10:42:31.324Z,97463.50
2023-02-09T10:45:09.410Z,97464.69
2023-02-09T10:47:38.654Z,97454.81
2023-02-09T10:50:11.483Z,97459.59
2023-02-09T10:52:55.332Z,97456.44
2023-02-09T10:55:43.980Z,97464.97
2023-02-09T10:58:25.917Z,97454.63
2023-02-09T11:01:17.140Z,97457.72
2023-02-09T11:04:05.630Z,97447.59
2023-02-09T11:06:47.601Z,97444.03
2023-02-09T11:09:20.547Z,97455.00
2023-02-09T11:11:47.221Z,97449.22
2023-02-09T11:14:18.939Z,97449.63
2023-02-09T11:16:57.580Z,97412.28
2023-02-09T11:19:49.051Z,97448.53
2023-02-09T11:22:29.115Z,97445.38
2023-02-09T11:25:19.696Z,97432.03
2023-02-09T11:28:01.463Z,97430.56
2023-02-09T11:30:49.860Z,97436.78
2023-02-09T11:33:29.844Z,97438.50
2023-02-09T11:36:32.584Z,97433.44
2023-02-09T11:39:08.832Z,97433.84
2023-02-09T11:42:26.015Z,97431.41
2023-02-09T11:45:02.484Z,97419.59
2023-02-09T11:47:47.564Z,97419.38
2023-02-09T11:50:46.688Z,97430.91
2023-02-09T11:53:48.423Z,97421.13
2023-02-09T11:56:22.460Z,97428.28
2023-02-09T11:59:07.955Z,97419.47
2023-02-09T12:01:49.932Z,97412.72
2023-02-09T12:04:30.223Z,97405.94
2023-02-09T12:07:07.666Z,97409.16
2023-02-09T12:10:01.570Z,97405.41
2023-02-09T12:12:47.255Z,97385.28
2023-02-09T12:15:15.988Z,97398.63
2023-02-09T12:17:53.070Z,97396.38
2023-02-09T12:20:30.596Z,97397.88
2023-02-09T12:23:18.506Z,97390.00
2023-02-09T12:25:51.762Z,97394.50
2023-02-09T12:28:24.507Z,97390.56
2023-02-09T12:30:58.388Z,97395.09
2023-02-09T12:33:25.056Z,97384.94
2023-02-09T12:36:12.754Z,97379.66
2023-02-09T12:39:04.717Z,97387.78
2023-02-09T12:41:31.840Z,97380.22
2023-02-09T12:44:10.834Z,97383.44
2023-02-09T12:46:53.168Z,97380.97
2023-02-09T12:49:30.222Z,97371.00
2023-02-09T12:52:07.151Z,97375.16
2023-02-09T12:54:44.407Z,97364.81
2023-02-09T12:57:17.381Z,97373.66
2023-02-09T12:59:50.572Z,97363.28
2023-02-09T13:02:49.749Z,97363.47
2023-02-09T13:05:27.311Z,97357.81
2023-02-09T13:08:04.109Z,97357.66
2023-02-09T13:10:38.101Z,97368.00
2023-02-09T13:13:14.117Z,97350.88
2023-02-09T13:16:05.222Z,97361.41
2023-02-09T13:18:56.337Z,97359.53
2023-02-09T13:21:44.803Z,97364.78
2023-02-09T13:24:16.579Z,97368.38
2023-02-09T13:26:50.883Z,97367.22
2023-02-09T13:29:22.276Z,97363.44
2023-02-09T13:32:20.479Z,97366.44
2023-02-09T13:34:52.326Z,97361.72
2023-02-09T13:37:39.662Z,97354.19
2023-02-09T13:40:25.134Z,97362.84
2023-02-09T13:43:00.913Z,97363.78
2023-02-09T13:45:30.282Z,97361.13
2023-02-09T13:48:02.850Z,97369.06
2023-02-09T13:50:30.505Z,97373.19
2023-02-09T13:53:12.319Z,97374.34
2023-02-09T13:55:42.941Z,97372.66
2023-02-09T13:58:17.917Z,97362.63
2023-02-09T14:00:55.425Z,97374.69
2023-02-09T14:03:29.523Z,97383.72
2023-02-09T14:06:09.140Z,97374.69
2023-02-09T14:08:41.071Z,97374.69
2023-02-09T14:11:36.503Z,97372.59
2023-02-09T14:14:13.021Z,97366.22
2023-02-09T14:16:52.644Z,97366.41
2023-02-09T14:19:30.748Z,97374.13
2023-02-09T14:22:01.901Z,97370.56
2023-02-09T14:24:44.632Z,97373.56
2023-02-09T14:27:26.719Z,97370.16
2023-02-09T14:29:57.175Z,97367.50
2023-02-09T14:32:32.971Z,97371.84
2023-02-09T14:35:15.408Z,97371.28
2023-02-09T14:37:49.138Z,97380.50
2023-02-09T14:40:37.352Z,97367.91
2023-02-09T14:43:06.999Z,97375.44
2023-02-09T14:45:49.786Z,97376.94
2023-02-09T14:48:28.150Z,97371.09
2023-02-09T14:50:59.596Z,97374.66
2023-02-09T14:53:45.439Z,97381.06
2023-02-09T14:56:38.317Z,97382.59
2023-02-09T14:59:15.891Z,97380.31
2023-02-09T15:01:43.056Z,97376.19
2023-02-09T15:04:12.271Z,97375.25
2023-02-09T15:06:44.247Z,97367.34
2023-02-09T15:09:23.774Z,97377.13
2023-02-09T15:12:07.404Z,97373.94
2023-02-09T15:14:41.880Z,97382.22
2023-02-09T15:17:23.650Z,97376.41
2023-02-09T15:19:55.292Z,97379.22
2023-02-09T15:22:27.308Z,97383.00
2023-02-09T15:24:57.702Z,97375.25
2023-02-09T15:27:40.105Z,97386.38
2023-02-09T15:30:16.148Z,97386.19
2023-02-09T15:32:47.486Z,97382.25
2023-02-09T15:35:23.051Z,97394.13
2023-02-09T15:37:55.841Z,97386.56
2023-02-09T15:44:15.340Z,97385.66
2023-02-09T15:47:04.804Z,97392.44
2023-02-09T15:49:32.022Z,97386.59
2023-02-09T15:51:58.748Z,97395.81
2023-02-09T15:54:32.328Z,97400.72
2023-02-09T15:57:01.175Z,97406.56
2023-02-09T15:59:30.120Z,97413.16
2023-02-09T16:02:01.573Z,97412.44
2023-02-09T16:04:31.198Z,97417.31
2023-02-09T16:07:00.327Z,97421.66
2023-02-09T16:09:32.449Z,97430.88
2023-02-09T16:12:01.453Z,97430.13
2023-02-09T16:14:31.967Z,97438.78
2023-02-09T16:16:58.728Z,97442.34
2023-02-09T16:19:27.911Z,97436.91
2023-02-09T16:22:00.197Z,97441.06
2023-02-09T16:24:35.293Z,97443.50
2023-02-09T16:27:11.595Z,97441.03
2023-02-09T16:29:38.244Z,97444.44
2023-02-09T16:32:13.878Z,97446.91
2023-02-09T16:34:43.841Z,97444.59
2023-02-09T16:37:15.253Z,97452.31
2023-02-09T16:39:46.735Z,97460.78
2023-02-09T16:42:18.962Z,97451.16
2023-02-09T16:44:48.586Z,97464.31
2023-02-09T16:47:29.735Z,97477.13
2023-02-09T16:50:22.827Z,97461.47
2023-02-09T16:52:55.037Z,97479.16
2023-02-09T16:55:32.913Z,97487.25
2023-02-09T16:58:06.530Z,97479.91
2023-02-09T17:00:38.352Z,97491.00
2023-02-09T17:03:15.973Z,97486.28
2023-02-09T17:05:51.557Z,97491.09
2023-02-09T17:08:23.746Z,97500.16
2023-02-09T17:10:55.324Z,97499.91
2023-02-09T17:13:22.646Z,97501.00
2023-02-09T17:15:52.393Z,97498.47
2023-02-09T17:18:22.679Z,97496.63
2023-02-09T17:21:01.610Z,97515.25
2023-02-09T17:23:35.535Z,97512.94
2023-02-09T17:26:09.885Z,97501.78
2023-02-09T17:28:36.762Z,97515.50
2023-02-09T17:31:14.543Z,97514.78
2023-02-09T17:33:47.140Z,97509.63
2023-02-09T17:36:30.523Z,97516.38
2023-02-09T17:39:02.014Z,97566.34
2023-02-09T17:44:43.757Z,97537.69
2023-02-09T17:47:16.750Z,97518.47
2023-02-09T17:49:45.777Z,97516.56
2023-02-09T17:52:18.580Z,97505.69
2023-02-09T17:54:47.909Z,97538.09
2023-02-09T17:57:16.400Z,97537.69
2023-02-09T17:59:48.183Z,97523.59
2023-02-09T18:02:17.177Z,97526.94
2023-02-09T18:04:46.739Z,97519.75
2023-02-09T18:07:20.440Z,97546.25
2023-02-09T18:09:47.758Z,97580.84
2023-02-09T18:12:20.677Z,97545.13
2023-02-09T18:14:48.158Z,97534.22
2023-02-09T18:17:17.348Z,97544.28
2023-02-09T18:19:46.623Z,97554.22
2023-02-09T18:22:19.998Z,97550.09
2023-02-09T18:24:48.985Z,97545.69
2023-02-09T18:27:19.200Z,97555.84
2023-02-09T18:29:45.920Z,97552.75
2023-02-09T18:32:17.983Z,97536.31
2023-02-09T18:34:44.763Z,97551.78
2023-02-09T18:37:14.472Z,97547.38
2023-02-09T18:39:46.207Z,97535.28
2023-02-09T18:42:17.297Z,97546.75
2023-02-09T18:44:44.123Z,97563.72
2023-02-09T18:47:11.202Z,97546.31
2023-02-09T18:49:40.751Z,97546.22
2023-02-09T18:52:10.519Z,97568.38
2023-02-09T18:54:37.518Z,97532.72
2023-02-09T18:57:04.410Z,97571.75
2023-02-09T18:59:32.975Z,97569.28
2023-02-09T19:02:03.179Z,97561.53
2023-02-09T19:04:29.886Z,97569.31
2023-02-09T19:06:56.800Z,97577.97
2023-02-09T19:09:23.808Z,97554.28
2023-02-09T19:11:52.958Z,97559.91
2023-02-09T19:14:37.311Z,97580.78
2023-02-09T19:17:06.104Z,97582.81
2023-02-09T19:19:33.137Z,97590.94
2023-02-09T19:22:05.372Z,97588.66
2023-02-09T19:24:32.110Z,97572.97
2023-02-09T19:26:59.311Z,97581.88
2023-02-09T19:29:26.188Z,97571.59
2023-02-09T19:31:53.578Z,97567.63
2023-02-09T19:34:20.548Z,97603.63
2023-02-09T19:36:47.463Z,97585.53
2023-02-09T19:39:14.526Z,97563.06
2023-02-09T19:41:44.407Z,97578.53
2023-02-09T19:44:16.469Z,97595.50
2023-02-09T19:46:43.971Z,97584.38
2023-02-09T19:49:13.883Z,97579.81
2023-02-09T19:51:43.026Z,97569.16
2023-02-09T19:54:09.735Z,97589.47
2023-02-09T19:56:37.239Z,97577.88
2023-02-09T19:59:06.481Z,97590.75
2023-02-09T20:01:33.503Z,97579.09
2023-02-09T20:04:00.378Z,97571.84
2023-02-09T20:06:31.078Z,97577.88
2023-02-09T20:08:58.920Z,97569.75
2023-02-09T20:11:25.998Z,97585.78
2023-02-09T20:13:58.020Z,97593.75
2023-02-09T20:16:27.438Z,97591.81
2023-02-09T20:18:56.574Z,97597.19
2023-02-09T20:21:26.416Z,97611.38
2023-02-09T20:24:07.846Z,97569.09
2023-02-09T20:26:34.617Z,97591.91
2023-02-09T20:29:02.664Z,97602.09
2023-02-09T20:31:34.766Z,97598.84
2023-02-09T20:34:05.369Z,97597.19
2023-02-09T20:36:39.658Z,97560.44
2023-02-09T20:39:16.254Z,97591.56
2023-02-09T20:42:13.980Z,97583.13
2023-02-09T20:44:59.426Z,97594.22
2023-02-09T20:47:26.692Z,97600.84
2023-02-09T20:49:57.156Z,97601.69
2023-02-09T20:52:23.917Z,97607.31
2023-02-09T20:54:58.161Z,97610.97
2023-02-09T20:57:29.709Z,97588.31
2023-02-09T20:59:58.308Z,97620.44
2023-02-09T21:02:28.058Z,97623.56
2023-02-09T21:04:56.494Z,97615.91
2023-02-09T21:07:27.966Z,97617.28
2023-02-09T21:09:57.315Z,97603.28
2023-02-09T21:12:24.027Z,97611.06
2023-02-09T21:14:53.656Z,97622.91
2023-02-09T21:17:21.459Z,97618.59
2023-02-09T21:19:50.464Z,97618.91
2023-02-09T21:22:17.500Z,97639.69
2023-02-09T21:24:45.164Z,97616.19
2023-02-09T21:27:13.120Z,97622.47
2023-02-09T21:29:42.768Z,97636.34
2023-02-09T21:32:11.109Z,97640.22
2023-02-09T21:34:37.996Z,97625.38
2023-02-09T21:37:07.962Z,97634.16
2023-02-09T21:39:34.773Z,97680.25
2023-02-09T21:42:29.477Z,97633.19
2023-02-09T21:44:57.699Z,97631.91
2023-02-09T21:47:31.814Z,97622.81
2023-02-09T21:49:58.965Z,97659.84
2023-02-09T21:52:26.563Z,97647.50
2023-02-09T21:54:56.230Z,97626.28
2023-02-09T21:57:26.188Z,97667.59
2023-02-09T21:59:53.450Z,97668.13
2023-02-09T22:02:20.503Z,97642.88
2023-02-09T22:04:47.456Z,97663.81
2023-02-09T22:07:14.872Z,97667.91
2023-02-09T22:09:43.737Z,97661.38
2023-02-09T22:12:10.431Z,97647.19
2023-02-09T22:14:39.392Z,97666.16
2023-02-09T22:17:06.019Z,97660.63
2023-02-09T22:19:32.723Z,97644.47
2023-02-09T22:22:01.835Z,97679.34
2023-02-09T22:24:28.575Z,97681.91
2023-02-09T22:26:57.577Z,97649.09
2023-02-09T22:29:26.842Z,97680.38
2023-02-09T22:31:57.877Z,97686.88
2023-02-09T22:34:27.439Z,97670.84
2023-02-09T22:36:54.299Z,97647.59
2023-02-09T22:39:21.675Z,97663.78
2023-02-09T22:41:48.524Z,97666.13
2023-02-09T22:44:20.931Z,97656.78
2023-02-09T22:46:47.609Z,97653.13
2023-02-09T22:49:19.917Z,97674.94
2023-02-09T22:51:48.979Z,97668.78
2023-02-09T22:54:20.248Z,97679.84
2023-02-09T22:56:47.152Z,97660.59
2023-02-09T22:59:16.166Z,97660.38
2023-02-09T23:01:43.525Z,97666.72
2023-02-09T23:04:12.653Z,97677.75
2023-02-09T23:06:39.605Z,97674.56
2023-02-09T23:09:10.152Z,97676.06
2023-02-09T23:11:39.327Z,97665.16
2023-02-09T23:14:10.793Z,97662.84
2023-02-09T23:16:39.615Z,97669.69
2023-02-09T23:19:16.873Z,97667.16
2023-02-09T23:21:46.350Z,97668.00
2023-02-09T23:24:16.200Z,97654.00
2023-02-09T23:26:47.909Z,97659.44
2023-02-09T23:29:18.056Z,97664.81
2023-02-09T23:31:48.398Z,97668.81
2023-02-09T23:34:17.906Z,97656.69
2023-02-09T23:36:47.562Z,97649.31
2023-02-09T23:39:17.221Z,97667.53
2023-02-09T23:41:44.426Z,97673.47
2023-02-09T23:44:13.807Z,97699.28
2023-02-09T23:46:40.869Z,97682.19
2023-02-09T23:49:09.867Z,97698.69
2023-02-09T23:51:36.926Z,97684.66
2023-02-09T23:54:06.006Z,97668.94
2023-02-09T23:56:37.228Z,97691.75
2023-02-09T23:59:12.824Z,97697.88
